Cedar Beach, Vermont
Current Conditions -  °F | °C
As of 2:54 AM on Tuesday 21 Oct 2014 (Local Time) from KBTV Reporting Station
Overcast Overcast  
Wind Chill: 45°   Ceiling: 5500
Heat Index: 47°   Visibility: 10mi
Dew Point: 38°   Wind: 5mph
Humidity: 71%   Direction: 120°ESE
Pressure: 29.92"   Gusts: NA
Location:  44.3105°N, 73.222°W
Report Text: KBTV 210654Z 12004KT 10SM OVC055 08/03 A2992 RMK AO2 SLP134 T00830033
Loading
Personal Weather Stations






























Interactive Weather Map
Tropical Storm Tracking
New forecast layout! Learn more

10-Day Weather Forecast

Advertisements
Track Severe Weather on mobile